VLG150 LPPR-LEVC
Flight info
| Callsign | VLG150 |
|---|---|
| Flight time | 1h 17m |
| Altitude | 31000 |
| Route | PESUL DCT RIVRO DCT BARDI/N0417F320 M191 DIPOL M871 NVS/N0411F310 DCT NANDO/N0415F320 M871 ABOSI |
| Aircraft | A320/M-SDE3FGHIRWY/LB1 |
Departure
| Time | 2026-05-07 06:59 |
|---|---|
| Airport | Francisco de Sá Carneiro Airport (LPPR) |
Arrival
| Time | 2026-05-07 08:17 |
|---|---|
| Airport | Valencia Airport (LEVC) |
| Time | Latitude | Longitude | Altitude | Speed | Heading |
|---|---|---|---|---|---|
| 2026-05-07 06:27 | 41.23732 | -8.67266 | 237 ft | 0 kts | 69° |
| 2026-05-07 06:51 | 41.23731 | -8.67269 | 237 ft | 2 kts | 68° |
| 2026-05-07 06:51 | 41.23720 | -8.67301 | 237 ft | 3 kts | 62° |
| 2026-05-07 06:51 | 41.23706 | -8.67331 | 237 ft | 4 kts | 43° |
| 2026-05-07 06:51 | 41.23687 | -8.67345 | 237 ft | 3 kts | 331° |
| 2026-05-07 06:52 | 41.23680 | -8.67339 | 237 ft | 0 kts | 320° |
| 2026-05-07 06:54 | 41.23689 | -8.67349 | 237 ft | 3 kts | 320° |
| 2026-05-07 06:54 | 41.23708 | -8.67373 | 237 ft | 5 kts | 315° |
| 2026-05-07 06:54 | 41.23733 | -8.67418 | 237 ft | 7 kts | 305° |
| 2026-05-07 06:54 | 41.23779 | -8.67464 | 237 ft | 10 kts | 342° |
| 2026-05-07 06:55 | 41.23866 | -8.67487 | 237 ft | 15 kts | 349° |
| 2026-05-07 06:55 | 41.23985 | -8.67519 | 237 ft | 20 kts | 349° |
| 2026-05-07 06:55 | 41.24133 | -8.67557 | 237 ft | 23 kts | 349° |
| 2026-05-07 06:55 | 41.24254 | -8.67628 | 232 ft | 21 kts | 310° |
| 2026-05-07 06:56 | 41.24394 | -8.67731 | 222 ft | 27 kts | 347° |
| 2026-05-07 06:56 | 41.24595 | -8.67784 | 212 ft | 32 kts | 349° |
| 2026-05-07 06:56 | 41.24745 | -8.67825 | 202 ft | 35 kts | 346° |
| 2026-05-07 06:56 | 41.25080 | -8.67966 | 185 ft | 39 kts | 350° |
| 2026-05-07 06:57 | 41.25261 | -8.68015 | 178 ft | 41 kts | 349° |
| 2026-05-07 06:57 | 41.25515 | -8.68085 | 167 ft | 27 kts | 347° |
| 2026-05-07 06:57 | 41.25661 | -8.68136 | 165 ft | 14 kts | 317° |
| 2026-05-07 06:57 | 41.25673 | -8.68209 | 166 ft | 0 kts | 261° |
| 2026-05-07 06:58 | 41.25673 | -8.68212 | 166 ft | 2 kts | 261° |
| 2026-05-07 06:58 | 41.25668 | -8.68290 | 166 ft | 10 kts | 266° |
| 2026-05-07 06:58 | 41.25612 | -8.68336 | 167 ft | 15 kts | 178° |
| 2026-05-07 06:59 | 41.25330 | -8.68262 | 174 ft | 78 kts | 169° |
| 2026-05-07 06:59 | 41.24590 | -8.68067 | 210 ft | 137 kts | 168° |
| 2026-05-07 06:59 | 41.23542 | -8.67816 | 566 ft | 155 kts | 169° |
| 2026-05-07 06:59 | 41.22486 | -8.67555 | 1302 ft | 155 kts | 169° |
| 2026-05-07 07:00 | 41.21379 | -8.67268 | 1825 ft | 169 kts | 169° |
| 2026-05-07 07:00 | 41.20178 | -8.66961 | 2352 ft | 183 kts | 170° |
| 2026-05-07 07:00 | 41.18868 | -8.66631 | 2820 ft | 199 kts | 170° |
| 2026-05-07 07:00 | 41.17431 | -8.66268 | 3230 ft | 223 kts | 170° |
| 2026-05-07 07:01 | 41.15831 | -8.65852 | 3748 ft | 245 kts | 169° |
| 2026-05-07 07:01 | 41.14098 | -8.65390 | 4423 ft | 261 kts | 169° |
| 2026-05-07 07:01 | 41.12307 | -8.64922 | 5404 ft | 264 kts | 169° |
| 2026-05-07 07:01 | 41.10496 | -8.64447 | 6439 ft | 266 kts | 168° |
| 2026-05-07 07:02 | 41.08761 | -8.63621 | 7393 ft | 268 kts | 150° |
| 2026-05-07 07:02 | 41.07347 | -8.62007 | 8319 ft | 273 kts | 131° |
| 2026-05-07 07:02 | 41.06345 | -8.59835 | 9203 ft | 280 kts | 117° |
| 2026-05-07 07:02 | 41.05531 | -8.57474 | 10049 ft | 286 kts | 117° |
| 2026-05-07 07:03 | 41.04629 | -8.55001 | 10418 ft | 309 kts | 118° |
| 2026-05-07 07:03 | 41.03640 | -8.52377 | 10884 ft | 326 kts | 118° |
| 2026-05-07 07:03 | 41.02609 | -8.49667 | 11645 ft | 332 kts | 118° |
| 2026-05-07 07:03 | 41.01563 | -8.46917 | 12448 ft | 337 kts | 118° |
| 2026-05-07 07:04 | 41.00505 | -8.44127 | 13243 ft | 341 kts | 117° |
| 2026-05-07 07:04 | 40.99437 | -8.41300 | 13989 ft | 346 kts | 117° |
| 2026-05-07 07:04 | 40.98357 | -8.38433 | 14686 ft | 350 kts | 117° |
| 2026-05-07 07:04 | 40.97267 | -8.35531 | 15385 ft | 354 kts | 117° |
| 2026-05-07 07:05 | 40.96168 | -8.32604 | 16090 ft | 357 kts | 117° |
| 2026-05-07 07:05 | 40.95053 | -8.29639 | 16785 ft | 361 kts | 117° |
| 2026-05-07 07:05 | 40.93930 | -8.26653 | 17475 ft | 365 kts | 117° |
| 2026-05-07 07:05 | 40.92790 | -8.23633 | 18163 ft | 369 kts | 117° |
| 2026-05-07 07:06 | 40.91651 | -8.20624 | 18755 ft | 372 kts | 117° |
| 2026-05-07 07:06 | 40.90486 | -8.17547 | 19341 ft | 376 kts | 117° |
| 2026-05-07 07:06 | 40.89310 | -8.14447 | 19944 ft | 379 kts | 117° |
| 2026-05-07 07:06 | 40.88230 | -8.11251 | 20545 ft | 383 kts | 109° |
| 2026-05-07 07:07 | 40.87534 | -8.07831 | 21117 ft | 387 kts | 103° |
| 2026-05-07 07:07 | 40.86922 | -8.04358 | 21718 ft | 390 kts | 103° |
| 2026-05-07 07:07 | 40.86293 | -8.00851 | 22312 ft | 394 kts | 103° |
| 2026-05-07 07:07 | 40.85652 | -7.97320 | 22903 ft | 397 kts | 104° |
| 2026-05-07 07:08 | 40.85004 | -7.93762 | 23482 ft | 400 kts | 103° |
| 2026-05-07 07:08 | 40.84347 | -7.90162 | 23963 ft | 404 kts | 103° |
| 2026-05-07 07:08 | 40.83689 | -7.86544 | 24410 ft | 407 kts | 103° |
| 2026-05-07 07:08 | 40.83023 | -7.82888 | 24862 ft | 411 kts | 103° |
| 2026-05-07 07:09 | 40.82352 | -7.79208 | 25298 ft | 414 kts | 103° |
| 2026-05-07 07:09 | 40.81675 | -7.75498 | 25722 ft | 417 kts | 103° |
| 2026-05-07 07:09 | 40.80989 | -7.71755 | 26140 ft | 421 kts | 103° |
| 2026-05-07 07:09 | 40.80299 | -7.67993 | 26548 ft | 424 kts | 103° |
| 2026-05-07 07:10 | 40.79603 | -7.64199 | 26952 ft | 427 kts | 103° |
| 2026-05-07 07:10 | 40.78900 | -7.60380 | 27356 ft | 430 kts | 103° |
| 2026-05-07 07:10 | 40.78190 | -7.56537 | 27751 ft | 433 kts | 103° |
| 2026-05-07 07:10 | 40.77473 | -7.52667 | 28140 ft | 436 kts | 103° |
| 2026-05-07 07:11 | 40.76750 | -7.48768 | 28527 ft | 438 kts | 103° |
| 2026-05-07 07:11 | 40.76023 | -7.44857 | 28905 ft | 441 kts | 103° |
| 2026-05-07 07:11 | 40.75292 | -7.40918 | 29281 ft | 444 kts | 103° |
| 2026-05-07 07:11 | 40.74554 | -7.36954 | 29644 ft | 446 kts | 103° |
| 2026-05-07 07:12 | 40.73811 | -7.32965 | 29988 ft | 449 kts | 103° |
| 2026-05-07 07:12 | 40.73064 | -7.28961 | 30283 ft | 451 kts | 103° |
| 2026-05-07 07:12 | 40.72308 | -7.24936 | 30562 ft | 454 kts | 103° |
| 2026-05-07 07:12 | 40.71543 | -7.20887 | 30830 ft | 456 kts | 104° |
| 2026-05-07 07:13 | 40.70774 | -7.16827 | 31094 ft | 458 kts | 104° |
| 2026-05-07 07:13 | 40.69999 | -7.12731 | 31340 ft | 461 kts | 104° |
| 2026-05-07 07:13 | 40.69223 | -7.08628 | 31595 ft | 463 kts | 104° |
| 2026-05-07 07:13 | 40.68443 | -7.04506 | 31874 ft | 463 kts | 104° |
| 2026-05-07 07:14 | 40.67671 | -7.00421 | 31930 ft | 452 kts | 104° |
| 2026-05-07 07:14 | 40.66924 | -6.96478 | 31931 ft | 437 kts | 104° |
| 2026-05-07 07:14 | 40.65459 | -6.88793 | 31932 ft | 429 kts | 104° |
| 2026-05-07 07:15 | 40.64001 | -6.81188 | 31927 ft | 428 kts | 105° |
| 2026-05-07 07:15 | 40.62540 | -6.73610 | 31931 ft | 427 kts | 104° |
| 2026-05-07 07:16 | 40.61688 | -6.65864 | 31931 ft | 427 kts | 98° |
| 2026-05-07 07:16 | 40.60975 | -6.58105 | 31926 ft | 427 kts | 98° |
| 2026-05-07 07:17 | 40.60255 | -6.50359 | 31924 ft | 426 kts | 98° |
| 2026-05-07 07:17 | 40.59529 | -6.42642 | 31919 ft | 426 kts | 99° |
| 2026-05-07 07:18 | 40.58791 | -6.34883 | 31919 ft | 426 kts | 99° |
| 2026-05-07 07:18 | 40.58049 | -6.27153 | 31915 ft | 425 kts | 99° |
| 2026-05-07 07:19 | 40.57308 | -6.19439 | 31913 ft | 425 kts | 99° |
| 2026-05-07 07:19 | 40.56569 | -6.11734 | 31910 ft | 425 kts | 100° |
| 2026-05-07 07:20 | 40.55832 | -6.04084 | 31911 ft | 424 kts | 100° |
| 2026-05-07 07:20 | 40.55074 | -5.96380 | 31905 ft | 424 kts | 100° |
| 2026-05-07 07:21 | 40.54313 | -5.88693 | 31906 ft | 424 kts | 101° |
| 2026-05-07 07:21 | 40.53547 | -5.81006 | 31903 ft | 424 kts | 101° |
| 2026-05-07 07:22 | 40.52778 | -5.73325 | 31900 ft | 424 kts | 101° |
| 2026-05-07 07:22 | 40.52006 | -5.65655 | 31895 ft | 423 kts | 101° |
| 2026-05-07 07:23 | 40.51223 | -5.57985 | 31896 ft | 423 kts | 102° |
| 2026-05-07 07:23 | 40.50436 | -5.50322 | 31896 ft | 423 kts | 102° |
| 2026-05-07 07:24 | 40.49648 | -5.42666 | 31896 ft | 423 kts | 102° |
| 2026-05-07 07:24 | 40.48855 | -5.35008 | 31893 ft | 423 kts | 102° |
| 2026-05-07 07:25 | 40.47657 | -5.23539 | 31895 ft | 422 kts | 102° |
| 2026-05-07 07:26 | 40.46854 | -5.15907 | 31895 ft | 422 kts | 103° |
| 2026-05-07 07:26 | 40.46048 | -5.08268 | 31896 ft | 422 kts | 103° |
| 2026-05-07 07:27 | 40.45230 | -5.00632 | 31896 ft | 422 kts | 103° |
| 2026-05-07 07:27 | 40.44404 | -4.92994 | 31899 ft | 422 kts | 103° |
| 2026-05-07 07:28 | 40.43573 | -4.85369 | 31901 ft | 422 kts | 103° |
| 2026-05-07 07:28 | 40.42744 | -4.77748 | 31905 ft | 422 kts | 103° |
| 2026-05-07 07:29 | 40.41918 | -4.70113 | 31901 ft | 422 kts | 103° |
| 2026-05-07 07:29 | 40.41080 | -4.62495 | 31906 ft | 422 kts | 103° |
| 2026-05-07 07:30 | 40.40236 | -4.54932 | 31906 ft | 422 kts | 104° |
| 2026-05-07 07:30 | 40.39391 | -4.47310 | 31907 ft | 422 kts | 104° |
| 2026-05-07 07:31 | 40.38538 | -4.39681 | 31910 ft | 423 kts | 104° |
| 2026-05-07 07:31 | 40.37706 | -4.32300 | 31905 ft | 423 kts | 104° |
| 2026-05-07 07:32 | 40.36830 | -4.24672 | 31903 ft | 422 kts | 105° |
| 2026-05-07 07:32 | 40.35658 | -4.17105 | 31911 ft | 420 kts | 109° |
| 2026-05-07 07:33 | 40.34287 | -4.09718 | 31911 ft | 419 kts | 109° |
| 2026-05-07 07:33 | 40.32916 | -4.02284 | 31913 ft | 420 kts | 109° |
| 2026-05-07 07:34 | 40.31593 | -3.94819 | 31918 ft | 420 kts | 108° |
| 2026-05-07 07:34 | 40.30289 | -3.87359 | 31921 ft | 420 kts | 108° |
| 2026-05-07 07:35 | 40.28978 | -3.79894 | 31914 ft | 420 kts | 108° |
| 2026-05-07 07:35 | 40.27647 | -3.72436 | 31911 ft | 420 kts | 109° |
| 2026-05-07 07:36 | 40.26314 | -3.64974 | 31921 ft | 421 kts | 108° |
| 2026-05-07 07:36 | 40.24977 | -3.57518 | 31920 ft | 421 kts | 109° |
| 2026-05-07 07:37 | 40.23627 | -3.50063 | 31919 ft | 421 kts | 109° |
| 2026-05-07 07:37 | 40.22498 | -3.43812 | 31913 ft | 421 kts | 108° |
| 2026-05-07 07:38 | 40.21152 | -3.36343 | 31908 ft | 422 kts | 108° |
| 2026-05-07 07:38 | 40.19799 | -3.28875 | 31908 ft | 422 kts | 109° |
| 2026-05-07 07:39 | 40.18444 | -3.21451 | 31904 ft | 422 kts | 109° |
| 2026-05-07 07:39 | 40.17062 | -3.13933 | 31904 ft | 423 kts | 109° |
| 2026-05-07 07:40 | 40.15684 | -3.06463 | 31904 ft | 423 kts | 109° |
| 2026-05-07 07:40 | 40.14301 | -2.98985 | 31906 ft | 423 kts | 109° |
| 2026-05-07 07:41 | 40.12908 | -2.91498 | 31913 ft | 424 kts | 109° |
| 2026-05-07 07:41 | 40.11521 | -2.84053 | 31915 ft | 424 kts | 109° |
| 2026-05-07 07:42 | 40.10130 | -2.76556 | 31916 ft | 425 kts | 109° |
| 2026-05-07 07:42 | 40.08721 | -2.69056 | 31917 ft | 425 kts | 109° |
| 2026-05-07 07:43 | 40.07305 | -2.61549 | 31924 ft | 425 kts | 109° |
| 2026-05-07 07:43 | 40.05885 | -2.54054 | 31925 ft | 426 kts | 109° |
| 2026-05-07 07:44 | 40.04460 | -2.46551 | 31924 ft | 426 kts | 109° |
| 2026-05-07 07:44 | 40.03030 | -2.39036 | 31931 ft | 426 kts | 109° |
| 2026-05-07 07:45 | 40.01597 | -2.31528 | 31930 ft | 426 kts | 109° |
| 2026-05-07 07:45 | 40.00155 | -2.24016 | 31936 ft | 427 kts | 109° |
| 2026-05-07 07:46 | 39.98701 | -2.16528 | 31939 ft | 426 kts | 110° |
| 2026-05-07 07:46 | 39.97053 | -2.09105 | 31944 ft | 425 kts | 112° |
| 2026-05-07 07:47 | 39.95283 | -2.01750 | 31951 ft | 425 kts | 112° |
| 2026-05-07 07:47 | 39.93527 | -1.94385 | 31954 ft | 426 kts | 112° |
| 2026-05-07 07:48 | 39.91876 | -1.87341 | 31971 ft | 426 kts | 112° |
| 2026-05-07 07:48 | 39.90139 | -1.79904 | 31967 ft | 427 kts | 112° |
| 2026-05-07 07:49 | 39.88403 | -1.72519 | 31963 ft | 427 kts | 112° |
| 2026-05-07 07:49 | 39.86659 | -1.65128 | 31964 ft | 427 kts | 112° |
| 2026-05-07 07:50 | 39.84906 | -1.57738 | 31978 ft | 427 kts | 112° |
| 2026-05-07 07:50 | 39.83147 | -1.50350 | 31976 ft | 428 kts | 113° |
| 2026-05-07 07:51 | 39.81790 | -1.42766 | 31985 ft | 432 kts | 107° |
| 2026-05-07 07:51 | 39.80621 | -1.35102 | 31990 ft | 432 kts | 107° |
| 2026-05-07 07:52 | 39.79439 | -1.27440 | 31995 ft | 432 kts | 107° |
| 2026-05-07 07:52 | 39.78243 | -1.19767 | 32001 ft | 433 kts | 107° |
| 2026-05-07 07:52 | 39.77640 | -1.15924 | 31835 ft | 434 kts | 107° |
| 2026-05-07 07:53 | 39.77038 | -1.12088 | 31586 ft | 432 kts | 107° |
| 2026-05-07 07:53 | 39.76440 | -1.08281 | 31323 ft | 430 kts | 107° |
| 2026-05-07 07:53 | 39.75842 | -1.04480 | 31072 ft | 428 kts | 107° |
| 2026-05-07 07:53 | 39.75246 | -1.00703 | 30816 ft | 426 kts | 107° |
| 2026-05-07 07:54 | 39.74660 | -0.96987 | 30550 ft | 423 kts | 107° |
| 2026-05-07 07:54 | 39.74097 | -0.93401 | 30061 ft | 421 kts | 107° |
| 2026-05-07 07:54 | 39.73521 | -0.89733 | 29516 ft | 418 kts | 107° |
| 2026-05-07 07:54 | 39.72940 | -0.86050 | 29015 ft | 414 kts | 107° |
| 2026-05-07 07:55 | 39.72362 | -0.82404 | 28531 ft | 411 kts | 107° |
| 2026-05-07 07:55 | 39.71784 | -0.78782 | 28041 ft | 407 kts | 107° |
| 2026-05-07 07:55 | 39.71207 | -0.75192 | 27571 ft | 405 kts | 108° |
| 2026-05-07 07:55 | 39.70632 | -0.71628 | 27113 ft | 402 kts | 107° |
| 2026-05-07 07:56 | 39.70061 | -0.68093 | 26642 ft | 399 kts | 107° |
| 2026-05-07 07:56 | 39.69492 | -0.64571 | 26179 ft | 397 kts | 107° |
| 2026-05-07 07:56 | 39.68930 | -0.61076 | 25707 ft | 395 kts | 107° |
| 2026-05-07 07:56 | 39.68368 | -0.57595 | 25224 ft | 393 kts | 107° |
| 2026-05-07 07:57 | 39.67807 | -0.54121 | 24730 ft | 393 kts | 107° |
| 2026-05-07 07:57 | 39.67246 | -0.50657 | 24228 ft | 392 kts | 107° |
| 2026-05-07 07:57 | 39.66685 | -0.47192 | 23721 ft | 392 kts | 107° |
| 2026-05-07 07:57 | 39.66124 | -0.43740 | 23150 ft | 391 kts | 107° |
| 2026-05-07 07:58 | 39.65562 | -0.40292 | 22649 ft | 389 kts | 107° |
| 2026-05-07 07:58 | 39.65003 | -0.36863 | 22133 ft | 387 kts | 106° |
| 2026-05-07 07:58 | 39.64445 | -0.33459 | 21631 ft | 385 kts | 106° |
| 2026-05-07 07:58 | 39.63887 | -0.30071 | 21135 ft | 383 kts | 106° |
| 2026-05-07 07:59 | 39.63331 | -0.26705 | 20643 ft | 381 kts | 105° |
| 2026-05-07 07:59 | 39.62778 | -0.23352 | 20150 ft | 379 kts | 105° |
| 2026-05-07 07:59 | 39.62229 | -0.20019 | 19670 ft | 377 kts | 105° |
| 2026-05-07 07:59 | 39.61684 | -0.16719 | 19263 ft | 372 kts | 105° |
| 2026-05-07 08:00 | 39.61140 | -0.13440 | 18827 ft | 369 kts | 104° |
| 2026-05-07 08:00 | 39.60602 | -0.10194 | 18332 ft | 368 kts | 104° |
| 2026-05-07 08:00 | 39.60069 | -0.06983 | 17973 ft | 361 kts | 104° |
| 2026-05-07 08:00 | 39.59540 | -0.03803 | 17443 ft | 360 kts | 104° |
| 2026-05-07 08:01 | 39.59013 | -0.00651 | 17037 ft | 356 kts | 104° |
| 2026-05-07 08:01 | 39.58509 | 0.02364 | 16491 ft | 357 kts | 104° |
| 2026-05-07 08:01 | 39.57990 | 0.05477 | 16123 ft | 351 kts | 104° |
| 2026-05-07 08:01 | 39.57470 | 0.08577 | 15681 ft | 349 kts | 104° |
| 2026-05-07 08:02 | 39.56953 | 0.11641 | 15179 ft | 349 kts | 104° |
| 2026-05-07 08:02 | 39.56438 | 0.14687 | 14881 ft | 343 kts | 104° |
| 2026-05-07 08:02 | 39.55928 | 0.17695 | 14435 ft | 341 kts | 104° |
| 2026-05-07 08:02 | 39.55422 | 0.20688 | 14016 ft | 340 kts | 104° |
| 2026-05-07 08:03 | 39.54915 | 0.23667 | 13582 ft | 337 kts | 105° |
| 2026-05-07 08:03 | 39.53950 | 0.26372 | 13136 ft | 330 kts | 130° |
| 2026-05-07 08:03 | 39.52179 | 0.28179 | 12650 ft | 325 kts | 157° |
| 2026-05-07 08:03 | 39.49988 | 0.28691 | 12210 ft | 320 kts | 185° |
| 2026-05-07 08:04 | 39.47895 | 0.27873 | 11865 ft | 314 kts | 211° |
| 2026-05-07 08:04 | 39.46329 | 0.25979 | 11588 ft | 307 kts | 237° |
| 2026-05-07 08:04 | 39.45573 | 0.23460 | 11413 ft | 298 kts | 261° |
| 2026-05-07 08:04 | 39.45700 | 0.20803 | 11025 ft | 298 kts | 287° |
| 2026-05-07 08:05 | 39.46679 | 0.18496 | 10611 ft | 299 kts | 311° |
| 2026-05-07 08:05 | 39.48135 | 0.16572 | 10238 ft | 297 kts | 315° |
| 2026-05-07 08:05 | 39.49606 | 0.14694 | 9891 ft | 295 kts | 315° |
| 2026-05-07 08:05 | 39.50970 | 0.12718 | 9467 ft | 294 kts | 304° |
| 2026-05-07 08:06 | 39.51899 | 0.10392 | 9115 ft | 290 kts | 289° |
| 2026-05-07 08:06 | 39.52321 | 0.07872 | 8763 ft | 285 kts | 274° |
| 2026-05-07 08:06 | 39.52260 | 0.05322 | 8419 ft | 281 kts | 264° |
| 2026-05-07 08:06 | 39.52086 | 0.02812 | 8069 ft | 278 kts | 264° |
| 2026-05-07 08:07 | 39.51919 | 0.00331 | 7719 ft | 276 kts | 264° |
| 2026-05-07 08:07 | 39.51754 | -0.02132 | 7370 ft | 273 kts | 264° |
| 2026-05-07 08:07 | 39.51590 | -0.04571 | 7018 ft | 270 kts | 264° |
| 2026-05-07 08:07 | 39.51425 | -0.06987 | 6664 ft | 268 kts | 264° |
| 2026-05-07 08:08 | 39.51263 | -0.09380 | 6326 ft | 265 kts | 265° |
| 2026-05-07 08:08 | 39.51103 | -0.11734 | 6028 ft | 261 kts | 264° |
| 2026-05-07 08:08 | 39.50948 | -0.14034 | 5797 ft | 248 kts | 264° |
| 2026-05-07 08:08 | 39.50621 | -0.16125 | 5650 ft | 228 kts | 243° |
| 2026-05-07 08:09 | 39.49687 | -0.17649 | 5472 ft | 212 kts | 213° |
| 2026-05-07 08:09 | 39.48369 | -0.18376 | 5253 ft | 205 kts | 185° |
| 2026-05-07 08:09 | 39.46960 | -0.18377 | 4966 ft | 202 kts | 175° |
| 2026-05-07 08:09 | 39.45529 | -0.18292 | 4562 ft | 209 kts | 175° |
| 2026-05-07 08:10 | 39.44084 | -0.18212 | 4353 ft | 205 kts | 175° |
| 2026-05-07 08:10 | 39.42672 | -0.18137 | 4231 ft | 202 kts | 175° |
| 2026-05-07 08:10 | 39.41264 | -0.18061 | 4149 ft | 202 kts | 175° |
| 2026-05-07 08:10 | 39.39860 | -0.18001 | 4064 ft | 203 kts | 179° |
| 2026-05-07 08:11 | 39.38561 | -0.18647 | 3993 ft | 207 kts | 225° |
| 2026-05-07 08:11 | 39.37986 | -0.20316 | 3933 ft | 210 kts | 271° |
| 2026-05-07 08:11 | 39.38481 | -0.22033 | 3864 ft | 207 kts | 314° |
| 2026-05-07 08:11 | 39.39470 | -0.23364 | 3773 ft | 204 kts | 305° |
| 2026-05-07 08:12 | 39.40084 | -0.24963 | 3706 ft | 192 kts | 296° |
| 2026-05-07 08:12 | 39.40640 | -0.26470 | 3595 ft | 181 kts | 297° |
| 2026-05-07 08:12 | 39.41185 | -0.27905 | 3404 ft | 176 kts | 298° |
| 2026-05-07 08:12 | 39.41716 | -0.29296 | 3169 ft | 171 kts | 299° |
| 2026-05-07 08:13 | 39.42231 | -0.30638 | 2919 ft | 163 kts | 298° |
| 2026-05-07 08:13 | 39.42714 | -0.31904 | 2792 ft | 152 kts | 299° |
| 2026-05-07 08:13 | 39.43185 | -0.33104 | 2627 ft | 148 kts | 299° |
| 2026-05-07 08:13 | 39.43635 | -0.34285 | 2385 ft | 145 kts | 298° |
| 2026-05-07 08:14 | 39.44074 | -0.35449 | 2157 ft | 143 kts | 298° |
| 2026-05-07 08:14 | 39.44522 | -0.36599 | 1984 ft | 143 kts | 298° |
| 2026-05-07 08:14 | 39.44959 | -0.37766 | 1807 ft | 142 kts | 298° |
| 2026-05-07 08:14 | 39.45392 | -0.38895 | 1642 ft | 141 kts | 298° |
| 2026-05-07 08:15 | 39.45823 | -0.40028 | 1427 ft | 140 kts | 298° |
| 2026-05-07 08:15 | 39.46263 | -0.41155 | 1190 ft | 140 kts | 298° |
| 2026-05-07 08:15 | 39.46691 | -0.42274 | 966 ft | 138 kts | 298° |
| 2026-05-07 08:15 | 39.47116 | -0.43390 | 751 ft | 138 kts | 298° |
| 2026-05-07 08:16 | 39.47541 | -0.44503 | 577 ft | 138 kts | 299° |
| 2026-05-07 08:16 | 39.47965 | -0.45618 | 425 ft | 138 kts | 298° |
| 2026-05-07 08:16 | 39.48390 | -0.46734 | 250 ft | 138 kts | 298° |
| 2026-05-07 08:16 | 39.48668 | -0.47446 | 220 ft | 124 kts | 296° |
| 2026-05-07 08:17 | 39.48964 | -0.48238 | 209 ft | 67 kts | 296° |
| 2026-05-07 08:17 | 39.49061 | -0.48465 | 209 ft | 17 kts | 316° |
| 2026-05-07 08:17 | 39.49163 | -0.48507 | 217 ft | 16 kts | 6° |
| 2026-05-07 08:17 | 39.49221 | -0.48457 | 218 ft | 10 kts | 72° |
| 2026-05-07 08:18 | 39.49200 | -0.48335 | 213 ft | 12 kts | 117° |
| 2026-05-07 08:18 | 39.49175 | -0.48268 | 214 ft | 13 kts | 116° |
| 2026-05-07 08:18 | 39.49132 | -0.48155 | 214 ft | 15 kts | 116° |
| 2026-05-07 08:18 | 39.49081 | -0.48022 | 209 ft | 18 kts | 117° |
| 2026-05-07 08:19 | 39.49031 | -0.47883 | 213 ft | 13 kts | 106° |
| 2026-05-07 08:19 | 39.49045 | -0.47755 | 212 ft | 16 kts | 76° |
| 2026-05-07 08:19 | 39.49059 | -0.47645 | 209 ft | 9 kts | 97° |
| 2026-05-07 08:19 | 39.49089 | -0.47580 | 211 ft | 9 kts | 40° |
| 2026-05-07 08:20 | 39.49122 | -0.47539 | 209 ft | 4 kts | 45° |
| 2026-05-07 08:20 | 39.49124 | -0.47536 | 209 ft | 0 kts | 45° |